sensor_id;sensor_type;location;lat;lon;timestamp;temperature;humidity
15107;DHT22;7654;45.308;-75.096;2024-03-08T00:01:15;2.10;91.60
15107;DHT22;7654;45.308;-75.096;2024-03-08T00:03:47;2.10;91.90
15107;DHT22;7654;45.308;-75.096;2024-03-08T00:06:19;2.30;91.90
15107;DHT22;7654;45.308;-75.096;2024-03-08T00:08:50;2.40;91.70
15107;DHT22;7654;45.308;-75.096;2024-03-08T00:11:21;2.60;92.10
15107;DHT22;7654;45.308;-75.096;2024-03-08T00:13:54;2.60;93.40
15107;DHT22;7654;45.308;-75.096;2024-03-08T00:16:27;2.60;94.90
15107;DHT22;7654;45.308;-75.096;2024-03-08T00:18:57;2.60;95.10
15107;DHT22;7654;45.308;-75.096;2024-03-08T00:21:28;2.50;96.00
15107;DHT22;7654;45.308;-75.096;2024-03-08T00:23:58;2.40;95.90
15107;DHT22;7654;45.308;-75.096;2024-03-08T00:26:29;2.20;98.20
15107;DHT22;7654;45.308;-75.096;2024-03-08T00:28:59;2.10;99.70
15107;DHT22;7654;45.308;-75.096;2024-03-08T00:31:32;2.00;99.90
15107;DHT22;7654;45.308;-75.096;2024-03-08T00:34:04;1.80;99.90
15107;DHT22;7654;45.308;-75.096;2024-03-08T00:36:34;1.50;99.90
15107;DHT22;7654;45.308;-75.096;2024-03-08T00:39:07;1.30;99.90
15107;DHT22;7654;45.308;-75.096;2024-03-08T00:41:38;1.20;99.90
15107;DHT22;7654;45.308;-75.096;2024-03-08T00:44:09;1.10;99.90
15107;DHT22;7654;45.308;-75.096;2024-03-08T00:46:41;0.90;99.90
15107;DHT22;7654;45.308;-75.096;2024-03-08T00:49:15;1.00;99.90
15107;DHT22;7654;45.308;-75.096;2024-03-08T00:51:45;1.00;99.90
15107;DHT22;7654;45.308;-75.096;2024-03-08T00:54:16;0.80;99.90
15107;DHT22;7654;45.308;-75.096;2024-03-08T00:56:46;0.70;99.90
15107;DHT22;7654;45.308;-75.096;2024-03-08T00:59:17;0.60;99.90
15107;DHT22;7654;45.308;-75.096;2024-03-08T01:01:49;0.60;99.90
15107;DHT22;7654;45.308;-75.096;2024-03-08T01:04:19;0.50;99.90
15107;DHT22;7654;45.308;-75.096;2024-03-08T01:06:51;0.40;99.90
15107;DHT22;7654;45.308;-75.096;2024-03-08T01:09:21;0.30;99.90
15107;DHT22;7654;45.308;-75.096;2024-03-08T01:11:52;0.20;99.90
15107;DHT22;7654;45.308;-75.096;2024-03-08T01:14:24;0.10;99.90
15107;DHT22;7654;45.308;-75.096;2024-03-08T01:16:57;0.00;99.90
15107;DHT22;7654;45.308;-75.096;2024-03-08T01:19:28;-0.20;99.90
15107;DHT22;7654;45.308;-75.096;2024-03-08T01:22:01;-0.20;99.90
15107;DHT22;7654;45.308;-75.096;2024-03-08T01:24:32;-0.30;99.90
15107;DHT22;7654;45.308;-75.096;2024-03-08T01:27:03;-0.20;99.90
15107;DHT22;7654;45.308;-75.096;2024-03-08T01:29:34;-0.40;99.90
15107;DHT22;7654;45.308;-75.096;2024-03-08T01:32:08;-0.60;99.90
15107;DHT22;7654;45.308;-75.096;2024-03-08T01:34:38;-0.70;99.90
15107;DHT22;7654;45.308;-75.096;2024-03-08T01:37:09;-0.70;99.90
15107;DHT22;7654;45.308;-75.096;2024-03-08T01:39:39;-0.80;99.90
15107;DHT22;7654;45.308;-75.096;2024-03-08T01:42:10;-0.90;99.90
15107;DHT22;7654;45.308;-75.096;2024-03-08T01:44:43;-1.00;99.90
15107;DHT22;7654;45.308;-75.096;2024-03-08T01:47:16;-1.10;99.90
15107;DHT22;7654;45.308;-75.096;2024-03-08T01:49:46;-1.20;99.90
15107;DHT22;7654;45.308;-75.096;2024-03-08T01:52:17;-1.20;99.90
15107;DHT22;7654;45.308;-75.096;2024-03-08T01:54:51;-1.20;99.90
15107;DHT22;7654;45.308;-75.096;2024-03-08T01:57:23;-1.30;99.90
15107;DHT22;7654;45.308;-75.096;2024-03-08T01:59:53;-1.40;99.90
15107;DHT22;7654;45.308;-75.096;2024-03-08T02:02:27;-1.50;99.90
15107;DHT22;7654;45.308;-75.096;2024-03-08T02:05:00;-1.60;99.90
15107;DHT22;7654;45.308;-75.096;2024-03-08T02:07:31;-1.60;99.90
15107;DHT22;7654;45.308;-75.096;2024-03-08T02:10:02;-1.70;99.90
15107;DHT22;7654;45.308;-75.096;2024-03-08T02:12:33;-1.80;99.90
15107;DHT22;7654;45.308;-75.096;2024-03-08T02:15:05;-1.80;99.90
15107;DHT22;7654;45.308;-75.096;2024-03-08T02:17:38;-1.80;99.90
15107;DHT22;7654;45.308;-75.096;2024-03-08T02:20:10;-1.90;99.90
15107;DHT22;7654;45.308;-75.096;2024-03-08T02:22:43;-1.90;99.90
15107;DHT22;7654;45.308;-75.096;2024-03-08T02:25:14;-1.80;99.90
15107;DHT22;7654;45.308;-75.096;2024-03-08T02:27:44;-1.90;99.90
15107;DHT22;7654;45.308;-75.096;2024-03-08T02:30:15;-1.90;99.90
15107;DHT22;7654;45.308;-75.096;2024-03-08T02:32:46;-2.00;99.90
15107;DHT22;7654;45.308;-75.096;2024-03-08T02:35:17;-2.00;99.90
15107;DHT22;7654;45.308;-75.096;2024-03-08T02:37:49;-2.00;99.90
15107;DHT22;7654;45.308;-75.096;2024-03-08T02:40:20;-2.00;99.90
15107;DHT22;7654;45.308;-75.096;2024-03-08T02:42:50;-2.00;99.90
15107;DHT22;7654;45.308;-75.096;2024-03-08T02:45:23;-2.10;99.90
15107;DHT22;7654;45.308;-75.096;2024-03-08T02:47:53;-2.10;99.90
15107;DHT22;7654;45.308;-75.096;2024-03-08T02:50:24;-2.10;99.90
15107;DHT22;7654;45.308;-75.096;2024-03-08T02:52:56;-2.20;99.90
15107;DHT22;7654;45.308;-75.096;2024-03-08T02:55:27;-2.30;99.90
15107;DHT22;7654;45.308;-75.096;2024-03-08T02:57:57;-2.40;99.90
15107;DHT22;7654;45.308;-75.096;2024-03-08T03:00:28;-2.50;99.90
15107;DHT22;7654;45.308;-75.096;2024-03-08T03:02:59;-2.50;99.90
15107;DHT22;7654;45.308;-75.096;2024-03-08T03:05:31;-2.60;99.90
15107;DHT22;7654;45.308;-75.096;2024-03-08T03:08:04;-2.60;99.90
15107;DHT22;7654;45.308;-75.096;2024-03-08T03:10:38;-2.80;99.90
15107;DHT22;7654;45.308;-75.096;2024-03-08T03:13:08;-2.80;99.90
15107;DHT22;7654;45.308;-75.096;2024-03-08T03:15:39;-2.80;99.90
15107;DHT22;7654;45.308;-75.096;2024-03-08T03:18:10;-2.90;99.90
15107;DHT22;7654;45.308;-75.096;2024-03-08T03:20:41;-2.90;99.90
15107;DHT22;7654;45.308;-75.096;2024-03-08T03:23:14;-3.00;99.90
15107;DHT22;7654;45.308;-75.096;2024-03-08T03:25:58;-3.00;99.90
15107;DHT22;7654;45.308;-75.096;2024-03-08T03:28:28;-3.10;99.90
15107;DHT22;7654;45.308;-75.096;2024-03-08T03:31:00;-3.10;99.90
15107;DHT22;7654;45.308;-75.096;2024-03-08T03:33:34;-3.20;99.90
15107;DHT22;7654;45.308;-75.096;2024-03-08T03:36:05;-3.10;99.90
15107;DHT22;7654;45.308;-75.096;2024-03-08T03:38:41;-3.00;99.90
15107;DHT22;7654;45.308;-75.096;2024-03-08T03:41:12;-2.90;99.90
15107;DHT22;7654;45.308;-75.096;2024-03-08T03:43:43;-2.90;99.90
15107;DHT22;7654;45.308;-75.096;2024-03-08T03:46:13;-3.00;99.90
15107;DHT22;7654;45.308;-75.096;2024-03-08T03:48:45;-3.00;99.90
15107;DHT22;7654;45.308;-75.096;2024-03-08T03:51:16;-3.00;99.90
15107;DHT22;7654;45.308;-75.096;2024-03-08T03:53:49;-3.00;99.90
15107;DHT22;7654;45.308;-75.096;2024-03-08T03:56:24;-3.10;99.90
15107;DHT22;7654;45.308;-75.096;2024-03-08T03:58:55;-3.10;99.90
15107;DHT22;7654;45.308;-75.096;2024-03-08T04:01:25;-3.20;99.90
15107;DHT22;7654;45.308;-75.096;2024-03-08T04:03:56;-3.20;99.90
15107;DHT22;7654;45.308;-75.096;2024-03-08T04:06:27;-3.10;99.90
15107;DHT22;7654;45.308;-75.096;2024-03-08T04:08:59;-3.10;99.90
15107;DHT22;7654;45.308;-75.096;2024-03-08T04:11:30;-3.10;99.90
15107;DHT22;7654;45.308;-75.096;2024-03-08T04:14:01;-3.10;99.90
15107;DHT22;7654;45.308;-75.096;2024-03-08T04:16:33;-3.00;99.90
15107;DHT22;7654;45.308;-75.096;2024-03-08T04:19:05;-3.10;99.90
15107;DHT22;7654;45.308;-75.096;2024-03-08T04:21:38;-3.10;99.90
15107;DHT22;7654;45.308;-75.096;2024-03-08T04:24:10;-3.00;99.90
15107;DHT22;7654;45.308;-75.096;2024-03-08T04:26:40;-3.20;99.90
15107;DHT22;7654;45.308;-75.096;2024-03-08T04:29:10;-3.30;99.90
15107;DHT22;7654;45.308;-75.096;2024-03-08T04:31:42;-3.30;99.90
15107;DHT22;7654;45.308;-75.096;2024-03-08T04:34:13;-3.30;99.90
15107;DHT22;7654;45.308;-75.096;2024-03-08T04:36:43;-3.50;99.90
15107;DHT22;7654;45.308;-75.096;2024-03-08T04:39:15;-3.50;99.90
15107;DHT22;7654;45.308;-75.096;2024-03-08T04:41:47;-3.60;99.90
15107;DHT22;7654;45.308;-75.096;2024-03-08T04:44:17;-3.60;99.90
15107;DHT22;7654;45.308;-75.096;2024-03-08T04:46:48;-3.60;99.90
15107;DHT22;7654;45.308;-75.096;2024-03-08T04:49:18;-3.70;99.90
15107;DHT22;7654;45.308;-75.096;2024-03-08T04:51:50;-3.70;99.90
15107;DHT22;7654;45.308;-75.096;2024-03-08T04:54:22;-3.60;99.90
15107;DHT22;7654;45.308;-75.096;2024-03-08T04:56:52;-3.60;99.90
15107;DHT22;7654;45.308;-75.096;2024-03-08T04:59:24;-3.60;99.90
15107;DHT22;7654;45.308;-75.096;2024-03-08T05:01:54;-3.50;99.90
15107;DHT22;7654;45.308;-75.096;2024-03-08T05:04:25;-3.60;99.90
15107;DHT22;7654;45.308;-75.096;2024-03-08T05:06:55;-3.60;99.90
15107;DHT22;7654;45.308;-75.096;2024-03-08T05:09:27;-3.70;99.90
15107;DHT22;7654;45.308;-75.096;2024-03-08T05:12:00;-3.70;99.90
15107;DHT22;7654;45.308;-75.096;2024-03-08T05:14:31;-3.80;99.90
15107;DHT22;7654;45.308;-75.096;2024-03-08T05:17:03;-3.70;99.90
15107;DHT22;7654;45.308;-75.096;2024-03-08T05:19:36;-3.60;99.90
15107;DHT22;7654;45.308;-75.096;2024-03-08T05:22:07;-3.40;99.90
15107;DHT22;7654;45.308;-75.096;2024-03-08T05:24:39;-3.30;99.90
15107;DHT22;7654;45.308;-75.096;2024-03-08T05:27:09;-3.40;99.90
15107;DHT22;7654;45.308;-75.096;2024-03-08T05:29:40;-3.40;99.90
15107;DHT22;7654;45.308;-75.096;2024-03-08T05:32:10;-3.30;99.90
15107;DHT22;7654;45.308;-75.096;2024-03-08T05:34:40;-3.20;99.90
15107;DHT22;7654;45.308;-75.096;2024-03-08T05:37:11;-3.10;99.90
15107;DHT22;7654;45.308;-75.096;2024-03-08T05:39:44;-2.90;99.90
15107;DHT22;7654;45.308;-75.096;2024-03-08T05:42:14;-2.70;99.90
15107;DHT22;7654;45.308;-75.096;2024-03-08T05:44:44;-2.50;99.90
15107;DHT22;7654;45.308;-75.096;2024-03-08T05:47:15;-2.50;99.90
15107;DHT22;7654;45.308;-75.096;2024-03-08T05:49:46;-2.20;99.90
15107;DHT22;7654;45.308;-75.096;2024-03-08T05:52:17;-2.00;99.90
15107;DHT22;7654;45.308;-75.096;2024-03-08T05:54:49;-1.90;99.90
15107;DHT22;7654;45.308;-75.096;2024-03-08T05:57:20;-1.90;99.90
15107;DHT22;7654;45.308;-75.096;2024-03-08T05:59:51;-1.90;99.90
15107;DHT22;7654;45.308;-75.096;2024-03-08T06:02:22;-1.80;99.90
15107;DHT22;7654;45.308;-75.096;2024-03-08T06:04:52;-1.70;99.90
15107;DHT22;7654;45.308;-75.096;2024-03-08T06:07:23;-1.60;99.90
15107;DHT22;7654;45.308;-75.096;2024-03-08T06:09:55;-1.60;99.90
15107;DHT22;7654;45.308;-75.096;2024-03-08T06:12:26;-1.60;99.90
15107;DHT22;7654;45.308;-75.096;2024-03-08T06:15:01;-1.50;99.90
15107;DHT22;7654;45.308;-75.096;2024-03-08T06:17:32;-1.50;99.90
15107;DHT22;7654;45.308;-75.096;2024-03-08T06:20:03;-1.40;99.90
15107;DHT22;7654;45.308;-75.096;2024-03-08T06:22:38;-1.20;99.90
15107;DHT22;7654;45.308;-75.096;2024-03-08T06:25:11;-1.10;99.90
15107;DHT22;7654;45.308;-75.096;2024-03-08T06:27:43;-1.00;99.90
15107;DHT22;7654;45.308;-75.096;2024-03-08T06:30:15;-0.90;99.90
15107;DHT22;7654;45.308;-75.096;2024-03-08T06:32:45;-1.10;99.90
15107;DHT22;7654;45.308;-75.096;2024-03-08T06:35:16;-1.00;99.90
15107;DHT22;7654;45.308;-75.096;2024-03-08T06:37:48;-0.90;99.90
15107;DHT22;7654;45.308;-75.096;2024-03-08T06:40:20;-0.90;99.90
15107;DHT22;7654;45.308;-75.096;2024-03-08T06:42:51;-0.90;99.90
15107;DHT22;7654;45.308;-75.096;2024-03-08T06:45:21;-1.00;99.90
15107;DHT22;7654;45.308;-75.096;2024-03-08T06:47:52;-1.10;99.90
15107;DHT22;7654;45.308;-75.096;2024-03-08T06:50:23;-1.40;99.90
15107;DHT22;7654;45.308;-75.096;2024-03-08T06:52:53;-1.50;99.90
15107;DHT22;7654;45.308;-75.096;2024-03-08T06:55:25;-1.70;99.90
15107;DHT22;7654;45.308;-75.096;2024-03-08T06:57:56;-2.00;99.90
15107;DHT22;7654;45.308;-75.096;2024-03-08T07:00:26;-2.10;99.90
15107;DHT22;7654;45.308;-75.096;2024-03-08T07:02:58;-2.20;99.90
15107;DHT22;7654;45.308;-75.096;2024-03-08T07:05:29;-2.20;99.90
15107;DHT22;7654;45.308;-75.096;2024-03-08T07:08:01;-1.90;99.90
15107;DHT22;7654;45.308;-75.096;2024-03-08T07:10:33;-2.10;99.90
15107;DHT22;7654;45.308;-75.096;2024-03-08T07:13:06;-2.10;99.90
15107;DHT22;7654;45.308;-75.096;2024-03-08T07:15:37;-2.20;99.90
15107;DHT22;7654;45.308;-75.096;2024-03-08T07:18:08;-2.20;99.90
15107;DHT22;7654;45.308;-75.096;2024-03-08T07:20:43;-2.10;99.90
15107;DHT22;7654;45.308;-75.096;2024-03-08T07:23:14;-2.10;99.90
15107;DHT22;7654;45.308;-75.096;2024-03-08T07:26:06;-1.90;99.90
15107;DHT22;7654;45.308;-75.096;2024-03-08T07:28:37;-1.80;99.90
15107;DHT22;7654;45.308;-75.096;2024-03-08T07:31:07;-1.80;99.90
15107;DHT22;7654;45.308;-75.096;2024-03-08T07:33:49;-1.80;99.90
15107;DHT22;7654;45.308;-75.096;2024-03-08T07:36:21;-1.50;99.90
15107;DHT22;7654;45.308;-75.096;2024-03-08T07:38:52;-1.70;99.90
15107;DHT22;7654;45.308;-75.096;2024-03-08T07:41:24;-1.70;99.90
15107;DHT22;7654;45.308;-75.096;2024-03-08T07:43:55;-1.60;99.90
15107;DHT22;7654;45.308;-75.096;2024-03-08T07:46:25;-1.70;99.90
15107;DHT22;7654;45.308;-75.096;2024-03-08T07:48:59;-1.70;99.90
15107;DHT22;7654;45.308;-75.096;2024-03-08T07:51:29;-1.70;99.90
15107;DHT22;7654;45.308;-75.096;2024-03-08T07:54:00;-1.80;99.90
15107;DHT22;7654;45.308;-75.096;2024-03-08T07:56:34;-1.90;99.90
15107;DHT22;7654;45.308;-75.096;2024-03-08T07:59:05;-1.90;99.90
15107;DHT22;7654;45.308;-75.096;2024-03-08T08:01:36;-2.10;99.90
15107;DHT22;7654;45.308;-75.096;2024-03-08T08:04:07;-2.00;99.90
15107;DHT22;7654;45.308;-75.096;2024-03-08T08:06:40;-2.10;99.90
15107;DHT22;7654;45.308;-75.096;2024-03-08T08:09:11;-2.20;99.90
15107;DHT22;7654;45.308;-75.096;2024-03-08T08:11:45;-2.10;99.90
15107;DHT22;7654;45.308;-75.096;2024-03-08T08:14:15;-2.10;99.90
15107;DHT22;7654;45.308;-75.096;2024-03-08T08:16:46;-2.20;99.90
15107;DHT22;7654;45.308;-75.096;2024-03-08T08:19:16;-2.20;99.90
15107;DHT22;7654;45.308;-75.096;2024-03-08T08:21:47;-1.90;99.90
15107;DHT22;7654;45.308;-75.096;2024-03-08T08:24:17;-1.90;99.90
15107;DHT22;7654;45.308;-75.096;2024-03-08T08:26:50;-1.90;99.90
15107;DHT22;7654;45.308;-75.096;2024-03-08T08:29:21;-1.90;99.90
15107;DHT22;7654;45.308;-75.096;2024-03-08T08:31:51;-2.00;99.90
15107;DHT22;7654;45.308;-75.096;2024-03-08T08:34:22;-2.00;99.90
15107;DHT22;7654;45.308;-75.096;2024-03-08T08:36:54;-2.00;99.90
15107;DHT22;7654;45.308;-75.096;2024-03-08T08:39:24;-2.20;99.90
15107;DHT22;7654;45.308;-75.096;2024-03-08T08:41:56;-2.30;99.90
15107;DHT22;7654;45.308;-75.096;2024-03-08T08:44:27;-2.30;99.90
15107;DHT22;7654;45.308;-75.096;2024-03-08T08:46:57;-2.30;99.90
15107;DHT22;7654;45.308;-75.096;2024-03-08T08:49:39;-2.20;99.90
15107;DHT22;7654;45.308;-75.096;2024-03-08T08:52:11;-2.40;99.90
15107;DHT22;7654;45.308;-75.096;2024-03-08T08:54:44;-2.50;99.90
15107;DHT22;7654;45.308;-75.096;2024-03-08T08:57:19;-2.70;99.90
15107;DHT22;7654;45.308;-75.096;2024-03-08T08:59:49;-2.80;99.90
15107;DHT22;7654;45.308;-75.096;2024-03-08T09:02:19;-3.00;99.90
15107;DHT22;7654;45.308;-75.096;2024-03-08T09:04:50;-3.00;99.90
15107;DHT22;7654;45.308;-75.096;2024-03-08T09:07:21;-3.00;99.90
15107;DHT22;7654;45.308;-75.096;2024-03-08T09:09:52;-2.80;99.90
15107;DHT22;7654;45.308;-75.096;2024-03-08T09:12:27;-3.00;99.90
15107;DHT22;7654;45.308;-75.096;2024-03-08T09:14:58;-3.20;99.90
15107;DHT22;7654;45.308;-75.096;2024-03-08T09:17:28;-3.30;99.90
15107;DHT22;7654;45.308;-75.096;2024-03-08T09:19:59;-3.30;99.90
15107;DHT22;7654;45.308;-75.096;2024-03-08T09:22:33;-3.30;99.90
15107;DHT22;7654;45.308;-75.096;2024-03-08T09:25:04;-3.50;99.90
15107;DHT22;7654;45.308;-75.096;2024-03-08T09:27:37;-3.50;99.90
15107;DHT22;7654;45.308;-75.096;2024-03-08T09:30:10;-3.40;99.90
15107;DHT22;7654;45.308;-75.096;2024-03-08T09:32:41;-3.40;99.90
15107;DHT22;7654;45.308;-75.096;2024-03-08T09:35:12;-3.30;99.90
15107;DHT22;7654;45.308;-75.096;2024-03-08T09:37:42;-3.30;99.90
15107;DHT22;7654;45.308;-75.096;2024-03-08T09:40:12;-3.40;99.90
15107;DHT22;7654;45.308;-75.096;2024-03-08T09:42:46;-3.30;99.90
15107;DHT22;7654;45.308;-75.096;2024-03-08T09:45:18;-3.30;99.90
15107;DHT22;7654;45.308;-75.096;2024-03-08T09:47:50;-3.30;99.90
15107;DHT22;7654;45.308;-75.096;2024-03-08T09:50:22;-3.30;99.90
15107;DHT22;7654;45.308;-75.096;2024-03-08T09:52:55;-3.30;99.90
15107;DHT22;7654;45.308;-75.096;2024-03-08T09:55:27;-3.30;99.90
15107;DHT22;7654;45.308;-75.096;2024-03-08T09:58:06;-3.40;99.90
15107;DHT22;7654;45.308;-75.096;2024-03-08T10:01:07;-3.50;99.90
15107;DHT22;7654;45.308;-75.096;2024-03-08T10:03:37;-3.60;99.90
15107;DHT22;7654;45.308;-75.096;2024-03-08T10:06:08;-3.60;99.90
15107;DHT22;7654;45.308;-75.096;2024-03-08T10:08:39;-3.50;99.90
15107;DHT22;7654;45.308;-75.096;2024-03-08T10:11:12;-3.50;99.90
15107;DHT22;7654;45.308;-75.096;2024-03-08T10:13:45;-3.50;99.90
15107;DHT22;7654;45.308;-75.096;2024-03-08T10:16:18;-3.60;99.90
15107;DHT22;7654;45.308;-75.096;2024-03-08T10:18:49;-3.60;99.90
15107;DHT22;7654;45.308;-75.096;2024-03-08T10:21:21;-3.70;99.90
15107;DHT22;7654;45.308;-75.096;2024-03-08T10:23:53;-3.80;99.90
15107;DHT22;7654;45.308;-75.096;2024-03-08T10:26:23;-3.90;99.90
15107;DHT22;7654;45.308;-75.096;2024-03-08T10:28:55;-3.80;99.90
15107;DHT22;7654;45.308;-75.096;2024-03-08T10:31:26;-3.90;99.90
15107;DHT22;7654;45.308;-75.096;2024-03-08T10:33:56;-3.90;99.90
15107;DHT22;7654;45.308;-75.096;2024-03-08T10:36:28;-3.80;99.90
15107;DHT22;7654;45.308;-75.096;2024-03-08T10:39:01;-4.10;99.90
15107;DHT22;7654;45.308;-75.096;2024-03-08T10:41:33;-4.30;99.90
15107;DHT22;7654;45.308;-75.096;2024-03-08T10:44:17;-4.40;99.90
15107;DHT22;7654;45.308;-75.096;2024-03-08T10:47:01;-4.50;99.90
15107;DHT22;7654;45.308;-75.096;2024-03-08T10:49:38;-4.50;99.90
15107;DHT22;7654;45.308;-75.096;2024-03-08T10:52:10;-4.60;99.90
15107;DHT22;7654;45.308;-75.096;2024-03-08T10:54:43;-4.70;99.90
15107;DHT22;7654;45.308;-75.096;2024-03-08T10:57:13;-4.70;99.90
15107;DHT22;7654;45.308;-75.096;2024-03-08T10:59:47;-4.70;99.90
15107;DHT22;7654;45.308;-75.096;2024-03-08T11:02:18;-4.60;99.90
15107;DHT22;7654;45.308;-75.096;2024-03-08T11:04:51;-4.60;99.90
15107;DHT22;7654;45.308;-75.096;2024-03-08T11:07:26;-4.50;99.90
15107;DHT22;7654;45.308;-75.096;2024-03-08T11:09:57;-4.50;99.90
15107;DHT22;7654;45.308;-75.096;2024-03-08T11:12:28;-4.40;99.90
15107;DHT22;7654;45.308;-75.096;2024-03-08T11:15:02;-4.40;99.90
15107;DHT22;7654;45.308;-75.096;2024-03-08T11:17:47;-4.40;99.90
15107;DHT22;7654;45.308;-75.096;2024-03-08T11:20:18;-4.40;99.90
15107;DHT22;7654;45.308;-75.096;2024-03-08T11:22:51;-4.50;99.90
15107;DHT22;7654;45.308;-75.096;2024-03-08T11:25:33;-4.50;99.90
15107;DHT22;7654;45.308;-75.096;2024-03-08T11:28:12;-4.50;99.90
15107;DHT22;7654;45.308;-75.096;2024-03-08T11:33:54;-4.00;99.90
15107;DHT22;7654;45.308;-75.096;2024-03-08T11:36:25;-3.80;99.90
15107;DHT22;7654;45.308;-75.096;2024-03-08T11:38:58;-3.60;99.90
15107;DHT22;7654;45.308;-75.096;2024-03-08T11:41:35;-3.40;99.90
15107;DHT22;7654;45.308;-75.096;2024-03-08T11:44:07;-3.40;99.90
15107;DHT22;7654;45.308;-75.096;2024-03-08T11:46:40;-3.20;99.90
15107;DHT22;7654;45.308;-75.096;2024-03-08T11:49:17;-3.10;99.90
15107;DHT22;7654;45.308;-75.096;2024-03-08T11:51:52;-3.00;99.90
15107;DHT22;7654;45.308;-75.096;2024-03-08T11:54:24;-2.90;99.90
15107;DHT22;7654;45.308;-75.096;2024-03-08T11:56:55;-2.80;99.90
15107;DHT22;7654;45.308;-75.096;2024-03-08T11:59:29;-2.90;99.90
15107;DHT22;7654;45.308;-75.096;2024-03-08T12:02:01;-2.80;99.90
15107;DHT22;7654;45.308;-75.096;2024-03-08T12:04:34;-2.90;99.90
15107;DHT22;7654;45.308;-75.096;2024-03-08T12:07:05;-2.80;99.90
15107;DHT22;7654;45.308;-75.096;2024-03-08T12:09:40;-2.80;99.90
15107;DHT22;7654;45.308;-75.096;2024-03-08T12:12:15;-2.70;99.90
15107;DHT22;7654;45.308;-75.096;2024-03-08T12:14:46;-2.60;99.90
15107;DHT22;7654;45.308;-75.096;2024-03-08T12:17:16;-2.60;99.90
15107;DHT22;7654;45.308;-75.096;2024-03-08T12:19:49;-2.40;99.90
15107;DHT22;7654;45.308;-75.096;2024-03-08T12:22:25;-2.30;99.90
15107;DHT22;7654;45.308;-75.096;2024-03-08T12:25:04;-2.20;99.90
15107;DHT22;7654;45.308;-75.096;2024-03-08T12:27:38;-2.20;99.90
15107;DHT22;7654;45.308;-75.096;2024-03-08T12:30:20;-2.10;99.90
15107;DHT22;7654;45.308;-75.096;2024-03-08T12:32:56;-2.00;99.90
15107;DHT22;7654;45.308;-75.096;2024-03-08T12:35:30;-2.00;99.90
15107;DHT22;7654;45.308;-75.096;2024-03-08T12:38:02;-1.90;99.90
15107;DHT22;7654;45.308;-75.096;2024-03-08T12:40:34;-1.80;99.90
15107;DHT22;7654;45.308;-75.096;2024-03-08T12:43:09;-1.80;99.90
15107;DHT22;7654;45.308;-75.096;2024-03-08T12:45:40;-1.70;99.90
15107;DHT22;7654;45.308;-75.096;2024-03-08T12:48:13;-1.50;99.90
15107;DHT22;7654;45.308;-75.096;2024-03-08T12:50:45;-1.30;99.90
15107;DHT22;7654;45.308;-75.096;2024-03-08T12:53:16;-1.30;99.90
15107;DHT22;7654;45.308;-75.096;2024-03-08T12:55:46;-1.20;99.90
15107;DHT22;7654;45.308;-75.096;2024-03-08T12:58:17;-1.10;99.90
15107;DHT22;7654;45.308;-75.096;2024-03-08T13:00:48;-1.10;99.90
15107;DHT22;7654;45.308;-75.096;2024-03-08T13:03:21;-1.10;99.90
15107;DHT22;7654;45.308;-75.096;2024-03-08T13:05:54;-1.00;99.90
15107;DHT22;7654;45.308;-75.096;2024-03-08T13:08:25;-0.80;99.90
15107;DHT22;7654;45.308;-75.096;2024-03-08T13:10:58;-0.70;99.90
15107;DHT22;7654;45.308;-75.096;2024-03-08T13:13:28;-0.70;99.90
15107;DHT22;7654;45.308;-75.096;2024-03-08T13:15:59;-0.70;99.90
15107;DHT22;7654;45.308;-75.096;2024-03-08T13:18:29;-0.60;99.90
15107;DHT22;7654;45.308;-75.096;2024-03-08T13:21:02;-0.50;99.90
15107;DHT22;7654;45.308;-75.096;2024-03-08T13:23:35;-0.40;99.90
15107;DHT22;7654;45.308;-75.096;2024-03-08T13:26:08;-0.40;99.90
15107;DHT22;7654;45.308;-75.096;2024-03-08T13:28:39;-0.30;99.90
15107;DHT22;7654;45.308;-75.096;2024-03-08T13:31:09;-0.30;99.90
15107;DHT22;7654;45.308;-75.096;2024-03-08T13:33:39;-0.30;99.90
15107;DHT22;7654;45.308;-75.096;2024-03-08T13:36:11;-0.10;99.90
15107;DHT22;7654;45.308;-75.096;2024-03-08T13:38:43;-0.10;99.90
15107;DHT22;7654;45.308;-75.096;2024-03-08T13:41:13;0.00;99.90
15107;DHT22;7654;45.308;-75.096;2024-03-08T13:43:45;0.10;99.90
15107;DHT22;7654;45.308;-75.096;2024-03-08T13:46:17;0.20;99.90
15107;DHT22;7654;45.308;-75.096;2024-03-08T13:48:47;0.30;99.90
15107;DHT22;7654;45.308;-75.096;2024-03-08T13:51:20;0.30;99.90
15107;DHT22;7654;45.308;-75.096;2024-03-08T13:53:50;0.40;99.90
15107;DHT22;7654;45.308;-75.096;2024-03-08T13:56:20;0.40;99.90
15107;DHT22;7654;45.308;-75.096;2024-03-08T13:58:50;0.50;99.90
15107;DHT22;7654;45.308;-75.096;2024-03-08T14:01:20;0.70;99.90
15107;DHT22;7654;45.308;-75.096;2024-03-08T14:03:50;0.80;99.90
15107;DHT22;7654;45.308;-75.096;2024-03-08T14:06:23;0.80;99.90
15107;DHT22;7654;45.308;-75.096;2024-03-08T14:08:54;0.90;99.90
15107;DHT22;7654;45.308;-75.096;2024-03-08T14:11:25;0.90;99.90
15107;DHT22;7654;45.308;-75.096;2024-03-08T14:13:56;0.90;99.90
15107;DHT22;7654;45.308;-75.096;2024-03-08T14:16:27;1.00;99.90
15107;DHT22;7654;45.308;-75.096;2024-03-08T14:18:57;1.00;99.90
15107;DHT22;7654;45.308;-75.096;2024-03-08T14:21:35;1.10;99.90
15107;DHT22;7654;45.308;-75.096;2024-03-08T14:24:07;1.10;99.90
15107;DHT22;7654;45.308;-75.096;2024-03-08T14:26:39;1.20;99.90
15107;DHT22;7654;45.308;-75.096;2024-03-08T14:29:11;1.30;99.90
15107;DHT22;7654;45.308;-75.096;2024-03-08T14:31:40;1.40;99.90
15107;DHT22;7654;45.308;-75.096;2024-03-08T14:34:11;1.50;99.90
15107;DHT22;7654;45.308;-75.096;2024-03-08T14:36:43;1.60;99.90
15107;DHT22;7654;45.308;-75.096;2024-03-08T14:39:13;1.70;99.90
15107;DHT22;7654;45.308;-75.096;2024-03-08T14:41:50;1.80;99.90
15107;DHT22;7654;45.308;-75.096;2024-03-08T14:44:21;1.80;99.90
15107;DHT22;7654;45.308;-75.096;2024-03-08T14:46:53;1.90;99.90
15107;DHT22;7654;45.308;-75.096;2024-03-08T14:49:24;1.90;99.90
15107;DHT22;7654;45.308;-75.096;2024-03-08T14:51:58;2.00;99.90
15107;DHT22;7654;45.308;-75.096;2024-03-08T14:54:41;2.10;99.90
15107;DHT22;7654;45.308;-75.096;2024-03-08T14:57:11;2.20;99.90
15107;DHT22;7654;45.308;-75.096;2024-03-08T14:59:41;2.30;99.90
15107;DHT22;7654;45.308;-75.096;2024-03-08T15:02:10;2.40;99.90
15107;DHT22;7654;45.308;-75.096;2024-03-08T15:04:41;2.50;99.90
15107;DHT22;7654;45.308;-75.096;2024-03-08T15:07:13;2.50;99.90
15107;DHT22;7654;45.308;-75.096;2024-03-08T15:09:42;2.60;99.90
15107;DHT22;7654;45.308;-75.096;2024-03-08T15:12:12;2.70;99.90
15107;DHT22;7654;45.308;-75.096;2024-03-08T15:14:43;2.90;99.90
15107;DHT22;7654;45.308;-75.096;2024-03-08T15:17:14;2.90;99.90
15107;DHT22;7654;45.308;-75.096;2024-03-08T15:19:48;3.00;99.90
15107;DHT22;7654;45.308;-75.096;2024-03-08T15:22:21;3.00;99.90
15107;DHT22;7654;45.308;-75.096;2024-03-08T15:24:51;3.10;99.90
15107;DHT22;7654;45.308;-75.096;2024-03-08T15:27:21;3.20;99.90
15107;DHT22;7654;45.308;-75.096;2024-03-08T15:29:51;3.20;99.90
15107;DHT22;7654;45.308;-75.096;2024-03-08T15:32:29;3.20;99.90
15107;DHT22;7654;45.308;-75.096;2024-03-08T15:35:00;3.30;99.90
15107;DHT22;7654;45.308;-75.096;2024-03-08T15:37:32;3.40;99.90
15107;DHT22;7654;45.308;-75.096;2024-03-08T15:40:02;3.50;99.90
15107;DHT22;7654;45.308;-75.096;2024-03-08T15:42:34;3.70;99.90
15107;DHT22;7654;45.308;-75.096;2024-03-08T15:45:04;3.80;99.90
15107;DHT22;7654;45.308;-75.096;2024-03-08T15:47:34;3.90;99.90
15107;DHT22;7654;45.308;-75.096;2024-03-08T15:50:05;4.00;99.90
15107;DHT22;7654;45.308;-75.096;2024-03-08T15:52:42;4.10;99.90